createdAt,value
2016-08-20T00:00:39.994Z,58.28
2016-08-20T00:01:51.579Z,58.28
2016-08-20T00:03:03.847Z,58.18
2016-08-20T00:04:15.417Z,57.9
2016-08-20T00:05:26.281Z,58.09
2016-08-20T00:06:38.550Z,58.09
2016-08-20T00:07:50.838Z,57.7
2016-08-20T00:09:03.100Z,57.8
2016-08-20T00:10:14.653Z,57.8
2016-08-20T00:11:26.929Z,57.8
2016-08-20T00:12:39.221Z,57.8
2016-08-20T00:13:50.816Z,57.99
2016-08-20T00:15:02.363Z,57.99
2016-08-20T00:16:14.636Z,57.7
2016-08-20T00:17:26.926Z,57.99
2016-08-20T00:18:39.209Z,57.7
2016-08-20T00:19:51.469Z,57.9
2016-08-20T00:21:03.050Z,57.8
2016-08-20T00:22:15.314Z,57.8
2016-08-20T00:23:26.881Z,57.7
2016-08-20T00:24:39.153Z,57.8
2016-08-20T00:25:50.015Z,57.7
2016-08-20T00:27:00.173Z,57.8
2016-08-20T00:28:11.731Z,57.8
2016-08-20T00:29:22.611Z,57.8
2016-08-20T00:30:34.879Z,57.7
2016-08-20T00:31:46.452Z,57.6
2016-08-20T00:32:56.620Z,57.7
2016-08-20T00:34:08.195Z,57.99
2016-08-20T00:35:19.761Z,57.6
2016-08-20T00:36:31.331Z,57.8
2016-08-20T00:37:43.592Z,58.18
2016-08-20T00:38:55.841Z,58.18
2016-08-20T00:40:08.106Z,57.99
2016-08-20T00:41:19.674Z,57.97
2016-08-20T00:42:31.946Z,57.99
2016-08-20T00:43:44.208Z,58.06
2016-08-20T00:44:55.778Z,58.06
2016-08-20T00:46:08.044Z,58.06
2016-08-20T00:47:18.919Z,57.97
2016-08-20T00:48:30.491Z,58.25
2016-08-20T00:49:41.336Z,58.35
2016-08-20T00:50:52.192Z,58.09
2016-08-20T00:52:04.463Z,57.6
2016-08-20T00:53:16.726Z,57.99
2016-08-20T00:54:27.589Z,57.9
2016-08-20T00:55:39.873Z,57.8
2016-08-20T00:56:50.740Z,57.99
2016-08-20T00:58:02.315Z,57.7
2016-08-20T00:59:14.569Z,57.9
2016-08-20T01:00:24.717Z,57.7
2016-08-20T01:01:36.979Z,57.97
2016-08-20T01:02:49.249Z,58.25
2016-08-20T01:04:00.111Z,58.15
2016-08-20T01:05:11.694Z,57.77
2016-08-20T01:06:23.967Z,57.77
2016-08-20T01:07:35.552Z,57.87
2016-08-20T01:08:47.108Z,57.97
2016-08-20T01:09:59.388Z,57.97
2016-08-20T01:11:10.956Z,58.06
2016-08-20T01:12:22.529Z,58.06
2016-08-20T01:13:34.797Z,57.97
2016-08-20T01:14:46.354Z,57.97
2016-08-20T01:15:57.915Z,58.15
2016-08-20T01:17:09.473Z,58.15
2016-08-20T01:18:20.334Z,58.35
2016-08-20T01:19:30.508Z,58.35
2016-08-20T01:20:41.361Z,58.54
2016-08-20T01:21:52.220Z,58.25
2016-08-20T01:23:04.487Z,57.97
2016-08-20T01:24:16.036Z,57.97
2016-08-20T01:25:26.898Z,57.77
2016-08-20T01:26:39.169Z,58.15
2016-08-20T01:27:50.736Z,58.15
2016-08-20T01:29:03.003Z,58.06
2016-08-20T01:30:14.576Z,58.25
2016-08-20T01:31:26.132Z,58.15
2016-08-20T01:32:38.416Z,57.77
2016-08-20T01:33:49.981Z,57.87
2016-08-20T01:35:01.547Z,58.15
2016-08-20T01:36:13.810Z,58.35
2016-08-20T01:37:26.107Z,57.68
2016-08-20T01:38:36.982Z,58.35
2016-08-20T01:39:49.259Z,58.35
2016-08-20T01:41:00.811Z,58.25
2016-08-20T01:42:12.368Z,58.35
2016-08-20T01:43:23.925Z,58.25
2016-08-20T01:44:34.790Z,57.77
2016-08-20T01:45:46.379Z,57.97
2016-08-20T01:46:58.645Z,57.97
2016-08-20T01:48:09.512Z,57.97
2016-08-20T01:49:21.771Z,58.15
2016-08-20T01:50:34.041Z,58.22
2016-08-20T01:51:45.602Z,58.06
2016-08-20T01:52:57.166Z,58.15
2016-08-20T01:54:08.023Z,57.93
2016-08-20T01:55:20.298Z,58.25
2016-08-20T01:56:31.862Z,58.13
2016-08-20T01:57:42.742Z,58.03
2016-08-20T01:58:54.316Z,58.03
2016-08-20T02:00:06.572Z,58.03
2016-08-20T02:01:18.842Z,58.42
2016-08-20T02:02:29.694Z,57.84
2016-08-20T02:03:41.962Z,58.22
2016-08-20T02:04:54.238Z,57.84
2016-08-20T02:06:06.514Z,58.51
2016-08-20T02:07:18.075Z,57.84
2016-08-20T02:08:28.933Z,58.22
2016-08-20T02:09:40.489Z,58.22
2016-08-20T02:10:52.064Z,57.84
2016-08-20T02:12:02.925Z,57.93
2016-08-20T02:13:13.784Z,58.61
2016-08-20T02:14:24.665Z,57.84
2016-08-20T02:15:36.934Z,58.22
2016-08-20T02:16:48.505Z,58.42
2016-08-20T02:18:00.774Z,58.03
2016-08-20T02:19:13.033Z,58.22
2016-08-20T02:20:25.309Z,58.22
2016-08-20T02:21:36.863Z,58.42
2016-08-20T02:22:47.721Z,58.03
2016-08-20T02:23:59.282Z,58.32
2016-08-20T02:25:10.838Z,58.42
2016-08-20T02:26:22.410Z,58.22
2016-08-20T02:27:34.685Z,58.51
2016-08-20T02:28:46.933Z,57.84
2016-08-20T02:29:59.225Z,58.51
2016-08-20T02:31:10.792Z,58.39
2016-08-20T02:32:23.054Z,58.03
2016-08-20T02:33:34.649Z,58.42
2016-08-20T02:34:46.921Z,58.03
2016-08-20T02:35:59.186Z,58.39
2016-08-20T02:37:11.452Z,58
2016-08-20T02:38:22.312Z,57.93
2016-08-20T02:39:34.579Z,58.32
2016-08-20T02:40:46.830Z,58.48
2016-08-20T02:41:59.097Z,58.22
2016-08-20T02:43:11.355Z,57.84
2016-08-20T02:44:21.507Z,57.84
2016-08-20T02:45:33.072Z,58.29
2016-08-20T02:46:43.925Z,58.32
2016-08-20T02:47:55.485Z,58.32
2016-08-20T02:49:07.043Z,57.9
2016-08-20T02:50:19.329Z,58.32
2016-08-20T02:51:30.886Z,58.48
2016-08-20T02:52:41.740Z,58.13
2016-08-20T02:53:54.005Z,57.81
2016-08-20T02:55:05.573Z,58.2
2016-08-20T02:56:17.138Z,57.9
2016-08-20T02:57:27.997Z,58.1
2016-08-20T02:58:39.562Z,58.29
2016-08-20T02:59:51.841Z,58.48
2016-08-20T03:01:04.097Z,58.2
2016-08-20T03:02:16.362Z,58
2016-08-20T03:03:28.622Z,58.58
2016-08-20T03:04:40.193Z,58.1
2016-08-20T03:05:51.067Z,58.2
2016-08-20T03:07:03.329Z,58.67
2016-08-20T03:08:14.186Z,58.29
2016-08-20T03:09:25.759Z,58
2016-08-20T03:10:38.028Z,58.29
2016-08-20T03:11:48.913Z,57.84
2016-08-20T03:13:01.163Z,58.48
2016-08-20T03:14:12.714Z,58.2
2016-08-20T03:15:24.996Z,58.2
2016-08-20T03:16:35.858Z,58.2
2016-08-20T03:17:48.105Z,58.2
2016-08-20T03:19:00.363Z,57.81
2016-08-20T03:20:12.640Z,58.1
2016-08-20T03:21:24.890Z,58.58
2016-08-20T03:22:35.748Z,58.1
2016-08-20T03:23:47.312Z,58.13
2016-08-20T03:24:59.574Z,58.13
2016-08-20T03:26:11.139Z,58.1
2016-08-20T03:27:22.699Z,58.2
2016-08-20T03:28:34.252Z,58
2016-08-20T03:29:46.518Z,58.2
2016-08-20T03:30:57.380Z,58.29
2016-08-20T03:32:08.936Z,58
2016-08-20T03:33:21.209Z,58.29
2016-08-20T03:34:33.481Z,58.1
2016-08-20T03:35:43.647Z,58.48
2016-08-20T03:36:55.913Z,58
2016-08-20T03:38:07.494Z,58.2
2016-08-20T03:39:18.377Z,58.58
2016-08-20T03:40:30.650Z,58.2
2016-08-20T03:41:41.506Z,58.1
2016-08-20T03:42:53.783Z,58
2016-08-20T03:44:04.634Z,58.77
2016-08-20T03:45:16.893Z,58.77
2016-08-20T03:46:29.153Z,58.77
2016-08-20T03:47:41.410Z,58.67
2016-08-20T03:48:53.197Z,58.58
2016-08-20T03:50:04.762Z,58.77
2016-08-20T03:51:17.020Z,58.77
2016-08-20T03:52:29.279Z,58.67
2016-08-20T03:53:40.833Z,58.77
2016-08-20T03:54:51.695Z,58
2016-08-20T03:56:03.268Z,58.29
2016-08-20T03:57:15.522Z,58.39
2016-08-20T03:58:27.095Z,58.39
2016-08-20T03:59:39.362Z,58.48
2016-08-20T04:00:51.652Z,58.29
2016-08-20T04:02:02.497Z,57.9
2016-08-20T04:03:14.762Z,58
2016-08-20T04:04:25.599Z,58
2016-08-20T04:05:37.171Z,57.9
2016-08-20T04:06:48.028Z,57.84
2016-08-20T04:08:00.309Z,58.13
2016-08-20T04:09:12.586Z,57.45
2016-08-20T04:10:24.143Z,57.65
2016-08-20T04:11:35.715Z,57.84
2016-08-20T04:12:47.975Z,57.65
2016-08-20T04:13:59.538Z,57.75
2016-08-20T04:15:11.796Z,58.03
2016-08-20T04:16:23.352Z,57.58
2016-08-20T04:17:34.905Z,57.17
2016-08-20T04:18:47.173Z,57.65
2016-08-20T04:19:59.448Z,57.77
2016-08-20T04:21:11.735Z,57.77
2016-08-20T04:22:23.292Z,57.58
2016-08-20T04:23:34.859Z,57.48
2016-08-20T04:24:47.115Z,57.58
2016-08-20T04:25:58.723Z,57.58
2016-08-20T04:27:10.283Z,57.58
2016-08-20T04:28:21.865Z,57.48
2016-08-20T04:29:34.127Z,57.58
2016-08-20T04:30:46.391Z,57.77
2016-08-20T04:31:57.946Z,57.68
2016-08-20T04:33:08.812Z,57.48
2016-08-20T04:34:20.374Z,57.51
2016-08-20T04:35:32.631Z,57.22
2016-08-20T04:36:44.900Z,57.13
2016-08-20T04:37:57.182Z,57.22
2016-08-20T04:39:08.038Z,57.32
2016-08-20T04:40:20.298Z,57.42
2016-08-20T04:41:31.853Z,57.32
2016-08-20T04:42:42.707Z,57.13
2016-08-20T04:43:54.973Z,57.25
2016-08-20T04:45:05.824Z,57.35
2016-08-20T04:46:16.696Z,57.15
2016-08-20T04:47:26.857Z,57.15
2016-08-20T04:48:37.721Z,57.35
2016-08-20T04:49:49.289Z,57.25
2016-08-20T04:51:00.155Z,57.06
2016-08-20T04:52:11.708Z,57.25
2016-08-20T04:53:23.962Z,57.25
2016-08-20T04:54:35.534Z,57.25
2016-08-20T04:55:47.105Z,57.25
2016-08-20T04:56:59.366Z,57.35
2016-08-20T04:58:11.644Z,57.25
2016-08-20T04:59:23.225Z,57.15
2016-08-20T05:00:34.069Z,57.15
2016-08-20T05:01:44.930Z,57.06
2016-08-20T05:02:57.193Z,56.96
2016-08-20T05:04:08.759Z,56.99
2016-08-20T05:05:21.065Z,57.09
2016-08-20T05:06:31.933Z,56.99
2016-08-20T05:07:43.495Z,56.9
2016-08-20T05:08:55.060Z,57.09
2016-08-20T05:10:06.631Z,57.09
2016-08-20T05:11:18.913Z,57.28
2016-08-20T05:12:30.469Z,57.28
2016-08-20T05:13:41.318Z,57.18
2016-08-20T05:14:52.198Z,57.57
2016-08-20T05:16:03.070Z,57.57
2016-08-20T05:17:14.638Z,57.28
2016-08-20T05:18:26.218Z,57.28
2016-08-20T05:19:37.792Z,57.18
2016-08-20T05:20:50.054Z,57.18
2016-08-20T05:22:02.305Z,57.28
2016-08-20T05:23:13.176Z,57.18
2016-08-20T05:24:24.049Z,57.09
2016-08-20T05:25:36.315Z,57.18
2016-08-20T05:26:47.873Z,57.09
2016-08-20T05:27:58.725Z,57.76
2016-08-20T05:29:10.985Z,57.95
2016-08-20T05:30:23.249Z,57.09
2016-08-20T05:31:35.497Z,57.28
2016-08-20T05:32:47.780Z,57.02
2016-08-20T05:34:00.074Z,57.02
2016-08-20T05:35:11.628Z,56.63
2016-08-20T05:36:22.474Z,56.73
2016-08-20T05:37:34.734Z,56.73
2016-08-20T05:38:46.995Z,56.82
2016-08-20T05:39:58.563Z,56.76
2016-08-20T05:41:10.827Z,56.27
2016-08-20T05:42:22.407Z,56.85
2016-08-20T05:43:34.677Z,56.47
2016-08-20T05:44:46.937Z,56.66
2016-08-20T05:45:58.505Z,56.76
2016-08-20T05:47:10.771Z,56.66
2016-08-20T05:48:22.330Z,56.76
2016-08-20T05:49:33.890Z,56.85
2016-08-20T05:50:44.745Z,56.37
2016-08-20T05:51:57.018Z,56.76
2016-08-20T05:53:07.880Z,55.99
2016-08-20T05:54:19.443Z,56.3
2016-08-20T05:55:31.018Z,56.79
2016-08-20T05:56:42.576Z,56.69
2016-08-20T05:57:54.843Z,56.69
2016-08-20T05:59:05.753Z,56.11
2016-08-20T06:00:17.337Z,55.66
2016-08-20T06:01:28.912Z,55.94
2016-08-20T06:02:40.479Z,55.66
2016-08-20T06:03:52.051Z,55.85
2016-08-20T06:05:03.622Z,55.98
2016-08-20T06:06:15.880Z,55.4
2016-08-20T06:07:27.434Z,55.59
2016-08-20T06:08:39.013Z,55.3
2016-08-20T06:09:50.585Z,55.2
2016-08-20T06:11:02.155Z,54.75
2016-08-20T06:12:13.725Z,55.33
2016-08-20T06:13:25.280Z,55.26
2016-08-20T06:14:37.558Z,55.35
2016-08-20T06:15:49.109Z,54.97
2016-08-20T06:17:00.678Z,54.87
2016-08-20T06:18:12.249Z,55.07
2016-08-20T06:19:23.812Z,55.29
2016-08-20T06:20:36.087Z,54.8
2016-08-20T06:21:47.662Z,54.71
2016-08-20T06:22:59.951Z,53.96
2016-08-20T06:24:10.811Z,53.99
2016-08-20T06:25:23.106Z,54.08
2016-08-20T06:26:35.361Z,54.08
2016-08-20T06:27:47.626Z,54.47
2016-08-20T06:28:57.797Z,54.17
2016-08-20T06:30:10.074Z,54.17
2016-08-20T06:31:22.349Z,53.91
2016-08-20T06:32:32.522Z,53.65
2016-08-20T06:33:44.081Z,53.45
2016-08-20T06:34:56.345Z,53.67
2016-08-20T06:36:07.913Z,54.23
2016-08-20T06:37:20.167Z,54.62
2016-08-20T06:38:32.433Z,55.24
2016-08-20T06:39:44.699Z,55.92
2016-08-20T06:40:56.978Z,55.89
2016-08-20T06:42:08.547Z,56.18
2016-08-20T06:43:20.814Z,56.15
2016-08-20T06:44:31.682Z,56.15
2016-08-20T06:45:43.242Z,55.77
2016-08-20T06:46:54.101Z,55.96
2016-08-20T06:48:05.652Z,56.15
2016-08-20T06:49:16.524Z,56.15
2016-08-20T06:50:27.387Z,56.05
2016-08-20T06:51:38.957Z,56.15
2016-08-20T06:52:51.234Z,56.35
2016-08-20T06:54:01.386Z,56.35
2016-08-20T06:55:13.647Z,56.05
2016-08-20T06:56:25.198Z,56.05
2016-08-20T06:57:37.456Z,55.96
2016-08-20T06:58:49.730Z,55.87
2016-08-20T07:00:01.986Z,56.05
2016-08-20T07:01:13.556Z,56.35
2016-08-20T07:02:25.824Z,55.77
2016-08-20T07:03:35.976Z,55.87
2016-08-20T07:04:47.547Z,56.25
2016-08-20T07:05:59.810Z,56.45
2016-08-20T07:07:12.080Z,55.96
2016-08-20T07:08:22.927Z,56.35
2016-08-20T07:09:35.193Z,56.25
2016-08-20T07:10:46.764Z,55.7
2016-08-20T07:11:59.022Z,55.6
2016-08-20T07:13:10.614Z,55.41
2016-08-20T07:14:22.884Z,55.41
2016-08-20T07:15:33.747Z,54.95
2016-08-20T07:16:45.317Z,55.34
2016-08-20T07:17:56.883Z,55.24
2016-08-20T07:19:09.143Z,55.34
2016-08-20T07:20:21.424Z,55.15
2016-08-20T07:21:32.982Z,55.34
2016-08-20T07:22:45.269Z,55.34
2016-08-20T07:23:57.550Z,55.17
2016-08-20T07:25:09.106Z,55.36
2016-08-20T07:26:21.381Z,54.69
2016-08-20T07:27:32.937Z,54.62
2016-08-20T07:28:45.222Z,54.71
2016-08-20T07:29:57.490Z,54.52
2016-08-20T07:31:09.746Z,54.33
2016-08-20T07:32:22.012Z,54.23
2016-08-20T07:33:33.574Z,54.26
2016-08-20T07:34:45.857Z,54.06
2016-08-20T07:35:58.139Z,54.06
2016-08-20T07:37:09.719Z,53.97
2016-08-20T07:38:21.267Z,54.19
2016-08-20T07:39:33.572Z,54.19
2016-08-20T07:40:45.130Z,54.28
2016-08-20T07:41:56.697Z,53.89
2016-08-20T07:43:08.969Z,53.99
2016-08-20T07:44:21.250Z,53.61
2016-08-20T07:45:32.829Z,53.63
2016-08-20T07:46:45.103Z,53.44
2016-08-20T07:47:55.969Z,53.17
2016-08-20T07:49:07.542Z,52.59
2016-08-20T07:50:19.829Z,52.72
2016-08-20T07:51:32.096Z,52.91
2016-08-20T07:52:44.353Z,52.64
2016-08-20T07:53:56.644Z,52.15
2016-08-20T07:55:08.913Z,52.28
2016-08-20T07:56:21.185Z,52.47
2016-08-20T07:57:32.757Z,52.57
2016-08-20T07:58:45.055Z,53.25
2016-08-20T07:59:57.339Z,52.79
2016-08-20T08:01:08.408Z,52.79
2016-08-20T08:02:20.678Z,52.79
2016-08-20T08:03:32.989Z,53.18
2016-08-20T08:04:45.272Z,52.98
2016-08-20T08:05:56.143Z,52.79
2016-08-20T08:07:08.444Z,53.08
2016-08-20T08:08:20.744Z,53.57
2016-08-20T08:09:33.019Z,53.35
2016-08-20T08:10:45.309Z,53.74
2016-08-20T08:11:57.593Z,54.13
2016-08-20T08:13:09.860Z,54.29
2016-08-20T08:14:22.135Z,54.2
2016-08-20T08:15:34.426Z,54.75
2016-08-20T08:16:45.993Z,54.75
2016-08-20T08:17:58.269Z,54.94
2016-08-20T08:19:10.556Z,54.66
2016-08-20T08:20:22.833Z,54.94
2016-08-20T08:21:35.165Z,55.02
2016-08-20T08:22:46.768Z,54.82
2016-08-20T08:23:58.359Z,54.63
2016-08-20T08:25:10.665Z,54.63
2016-08-20T08:26:22.227Z,54.53
2016-08-20T08:27:34.499Z,54.07
2016-08-20T08:28:46.790Z,53.49
2016-08-20T08:29:59.076Z,53.03
2016-08-20T08:31:11.384Z,52.96
2016-08-20T08:32:22.972Z,52.59
2016-08-20T08:33:35.249Z,52.23
2016-08-20T08:34:46.126Z,53.11
2016-08-20T08:35:57.697Z,52.82
2016-08-20T08:37:09.980Z,52.92
2016-08-20T08:38:22.256Z,54.05
2016-08-20T08:39:34.533Z,53.77
2016-08-20T08:40:46.227Z,53.77
2016-08-20T08:41:57.785Z,53.77
2016-08-20T08:43:09.367Z,53.96
2016-08-20T08:44:21.651Z,53.08
2016-08-20T08:45:31.114Z,53.01
2016-08-20T08:46:41.996Z,53.01
2016-08-20T08:47:54.293Z,53.04
2016-08-20T08:49:05.855Z,52.94
2016-08-20T08:50:17.442Z,52.38
2016-08-20T08:51:29.061Z,52.38
2016-08-20T08:52:41.361Z,52.5
2016-08-20T08:53:53.656Z,53.16
2016-08-20T08:55:05.945Z,52.58
2016-08-20T08:56:17.527Z,53.06
2016-08-20T08:57:29.831Z,53.09
2016-08-20T08:58:42.108Z,53.09
2016-08-20T08:59:53.665Z,52.92
2016-08-20T09:01:06.170Z,52.7
2016-08-20T09:02:18.508Z,54.06
2016-08-20T09:03:30.793Z,54.52
2016-08-20T09:04:43.069Z,54.5
2016-08-20T09:05:55.371Z,54.96
2016-08-20T09:07:06.948Z,54.93
2016-08-20T09:08:17.841Z,54.93
2016-08-20T09:09:30.106Z,54.93
2016-08-20T09:10:41.199Z,54.54
2016-08-20T09:11:52.776Z,54.15
2016-08-20T09:13:03.652Z,54.08
2016-08-20T09:14:15.979Z,54.38
2016-08-20T09:15:27.569Z,54.57
2016-08-20T09:16:39.143Z,54.28
2016-08-20T09:17:50.729Z,54.38
2016-08-20T09:19:02.311Z,54.57
2016-08-20T09:20:13.902Z,54.3
2016-08-20T09:21:26.193Z,53.81
2016-08-20T09:22:37.896Z,52.87
2016-08-20T09:23:50.190Z,52.99
2016-08-20T09:25:01.781Z,53.09
2016-08-20T09:26:14.066Z,52.83
2016-08-20T09:27:25.655Z,53.34
2016-08-20T09:28:37.943Z,53.14
2016-08-20T09:29:50.243Z,53.14
2016-08-20T09:31:02.533Z,53.73
2016-08-20T09:32:13.425Z,54.36
2016-08-20T09:33:25.007Z,53.87
2016-08-20T09:34:36.599Z,53.99
2016-08-20T09:35:48.870Z,53.7
2016-08-20T09:37:01.146Z,53.8
2016-08-20T09:38:12.063Z,53.99
2016-08-20T09:39:23.664Z,53.8
2016-08-20T09:40:35.263Z,53.8
2016-08-20T09:41:47.535Z,53.89
2016-08-20T09:42:59.135Z,53.8
2016-08-20T09:44:11.392Z,53.83
2016-08-20T09:45:23.679Z,53.92
2016-08-20T09:46:35.959Z,53.92
2016-08-20T09:47:46.845Z,54.11
2016-08-20T09:48:59.129Z,53.53
2016-08-20T09:50:10.718Z,54.05
2016-08-20T09:51:21.597Z,54.14
2016-08-20T09:52:33.181Z,53.56
2016-08-20T09:53:45.467Z,53.17
2016-08-20T09:54:57.044Z,53.17
2016-08-20T09:56:08.616Z,52.8
2016-08-20T09:57:20.205Z,53.32
2016-08-20T09:58:32.489Z,53.22
2016-08-20T09:59:44.796Z,52.25
2016-08-20T10:00:56.378Z,52.66
2016-08-20T10:02:07.974Z,52.86
2016-08-20T10:03:20.294Z,53.05
2016-08-20T10:04:31.858Z,53.05
2016-08-20T10:05:43.696Z,52.29
2016-08-20T10:06:55.506Z,52.59
2016-08-20T10:08:07.800Z,52.59
2016-08-20T10:09:18.664Z,52.51
2016-08-20T10:10:29.563Z,52.05
2016-08-20T10:11:41.875Z,52.54
2016-08-20T10:12:53.474Z,52.25
2016-08-20T10:14:04.347Z,52.25
2016-08-20T10:15:15.929Z,52.47
2016-08-20T10:16:27.515Z,52.86
2016-08-20T10:17:39.103Z,52.67
2016-08-20T10:18:49.994Z,52.96
2016-08-20T10:20:02.319Z,52.96
2016-08-20T10:21:13.897Z,52.76
2016-08-20T10:22:24.772Z,53.35
2016-08-20T10:23:36.360Z,53.35
2016-08-20T10:24:47.944Z,53.45
2016-08-20T10:26:00.422Z,53.42
2016-08-20T10:27:12.082Z,53.03
2016-08-20T10:28:24.385Z,53.42
2016-08-20T10:29:35.268Z,52.76
2016-08-20T10:30:46.867Z,52.3
2016-08-20T10:31:58.448Z,51.73
2016-08-20T10:33:10.031Z,51.79
2016-08-20T10:34:21.622Z,51.79
2016-08-20T10:35:32.499Z,52.55
2016-08-20T10:36:43.378Z,52.72
2016-08-20T10:37:54.502Z,53.3
2016-08-20T10:39:05.399Z,53.01
2016-08-20T10:40:16.988Z,52.98
2016-08-20T10:41:28.583Z,53.38
2016-08-20T10:42:40.868Z,53.28
2016-08-20T10:43:52.441Z,52.81
2016-08-20T10:45:04.044Z,53.08
2016-08-20T10:46:16.354Z,53.4
2016-08-20T10:47:26.514Z,53.3
2016-08-20T10:48:38.799Z,53.3
2016-08-20T10:49:51.079Z,53.4
2016-08-20T10:51:03.361Z,53.11
2016-08-20T10:52:15.658Z,53.5
2016-08-20T10:53:27.260Z,52.64
2016-08-20T10:54:38.841Z,52.94
2016-08-20T10:55:50.414Z,52.64
2016-08-20T10:57:02.014Z,52.94
2016-08-20T10:58:13.607Z,52.64
2016-08-20T10:59:25.913Z,52.84
2016-08-20T11:00:38.218Z,52.74
2016-08-20T11:01:49.788Z,52.84
2016-08-20T11:03:00.703Z,53.33
2016-08-20T11:04:10.881Z,53.33
2016-08-20T11:05:22.475Z,53.43
2016-08-20T11:06:34.800Z,53.53
2016-08-20T11:07:46.368Z,52.64
2016-08-20T11:08:58.629Z,52.67
2016-08-20T11:10:10.910Z,52.37
2016-08-20T11:11:22.475Z,52.28
2016-08-20T11:12:34.755Z,52.5
2016-08-20T11:13:47.045Z,52.5
2016-08-20T11:14:59.321Z,52.96
2016-08-20T11:16:11.611Z,53.06
2016-08-20T11:17:22.506Z,52.76
2016-08-20T11:18:34.108Z,53.16
2016-08-20T11:19:45.691Z,53.36
2016-08-20T11:20:55.878Z,53.45
2016-08-20T11:22:07.449Z,53.23
2016-08-20T11:23:19.052Z,53.63
2016-08-20T11:24:31.317Z,53.53
2016-08-20T11:25:42.896Z,54.21
2016-08-20T11:26:55.167Z,53.69
2016-08-20T11:28:07.445Z,54.19
2016-08-20T11:29:19.010Z,54.09
2016-08-20T11:30:30.576Z,53.86
2016-08-20T11:31:42.867Z,54.16
2016-08-20T11:32:55.169Z,53.96
2016-08-20T11:34:06.763Z,53.96
2016-08-20T11:35:19.044Z,53.77
2016-08-20T11:36:30.610Z,54.06
2016-08-20T11:37:42.936Z,54.06
2016-08-20T11:38:55.204Z,54.16
2016-08-20T11:40:07.499Z,53.99
2016-08-20T11:41:19.786Z,54.16
2016-08-20T11:42:31.359Z,53.86
2016-08-20T11:43:42.955Z,54.16
2016-08-20T11:44:55.232Z,54.38
2016-08-20T11:46:06.814Z,54.09
2016-08-20T11:47:18.421Z,54.09
2016-08-20T11:48:30.738Z,53.99
2016-08-20T11:49:43.029Z,53.8
2016-08-20T11:50:53.908Z,53.8
2016-08-20T11:52:04.779Z,53.99
2016-08-20T11:53:17.071Z,54.28
2016-08-20T11:54:29.352Z,54.28
2016-08-20T11:55:41.648Z,53.72
2016-08-20T11:56:53.930Z,53.53
2016-08-20T11:58:06.284Z,53.53
2016-08-20T11:59:17.858Z,53.53
2016-08-20T12:00:28.741Z,53.43
2016-08-20T12:01:39.632Z,53.82
2016-08-20T12:02:51.209Z,54.31
2016-08-20T12:04:02.773Z,54.21
2016-08-20T12:05:14.370Z,54.41
2016-08-20T12:06:25.941Z,54.41
2016-08-20T12:07:38.254Z,54.41
2016-08-20T12:08:49.850Z,54.5
2016-08-20T12:10:01.421Z,54.31
2016-08-20T12:11:13.018Z,54.21
2016-08-20T12:12:25.384Z,54.6
2016-08-20T12:13:37.918Z,54.41
2016-08-20T12:14:49.488Z,54.21
2016-08-20T12:16:00.401Z,53.82
2016-08-20T12:17:11.292Z,53.8
2016-08-20T12:18:22.878Z,53.82
2016-08-20T12:19:34.473Z,54.09
2016-08-20T12:20:45.341Z,54.09
2016-08-20T12:21:56.227Z,53.99
2016-08-20T12:23:08.521Z,54.28
2016-08-20T12:24:20.103Z,54.09
2016-08-20T12:25:32.401Z,54.09
2016-08-20T12:26:43.298Z,54.09
2016-08-20T12:27:55.594Z,54.31
2016-08-20T12:29:05.782Z,54.5
2016-08-20T12:30:16.654Z,54.31
2016-08-20T12:31:28.226Z,54.21
2016-08-20T12:32:39.804Z,53.92
2016-08-20T12:33:50.681Z,53.82
2016-08-20T12:35:02.248Z,53.92
2016-08-20T12:36:12.429Z,54.11
2016-08-20T12:37:23.312Z,53.92
2016-08-20T12:38:34.895Z,54.11
2016-08-20T12:39:46.472Z,54.21
2016-08-20T12:40:58.756Z,54.02
2016-08-20T12:42:10.322Z,54.11
2016-08-20T12:43:22.596Z,54.21
2016-08-20T12:44:34.184Z,54.11
2016-08-20T12:45:45.753Z,53.82
2016-08-20T12:46:58.035Z,54.11
2016-08-20T12:48:09.608Z,54.11
2016-08-20T12:49:21.885Z,53.85
2016-08-20T12:50:33.495Z,54.02
2016-08-20T12:51:45.379Z,53.92
2016-08-20T12:52:56.957Z,54.02
2016-08-20T12:54:08.537Z,54.31
2016-08-20T12:55:20.109Z,54.41
2016-08-20T12:56:30.970Z,54.31
2016-08-20T12:57:43.246Z,54.9
2016-08-20T12:58:54.863Z,54.7
2016-08-20T13:00:06.433Z,54.6
2016-08-20T13:01:18.022Z,54.48
2016-08-20T13:02:29.612Z,54.48
2016-08-20T13:03:41.896Z,54.6
2016-08-20T13:04:52.792Z,54.5
2016-08-20T13:06:04.376Z,54.9
2016-08-20T13:07:16.658Z,54.5
2016-08-20T13:08:28.927Z,54.7
2016-08-20T13:09:41.204Z,54.41
2016-08-20T13:10:52.776Z,54.6
2016-08-20T13:12:05.058Z,54.58
2016-08-20T13:13:17.354Z,54.7
2016-08-20T13:14:29.641Z,54.5
2016-08-20T13:15:41.222Z,54.31
2016-08-20T13:16:52.788Z,54.44
2016-08-20T13:18:03.667Z,54.21
2016-08-20T13:19:15.245Z,54.14
2016-08-20T13:20:27.521Z,54.33
2016-08-20T13:21:39.088Z,54.53
2016-08-20T13:22:50.659Z,54.7
2016-08-20T13:24:02.955Z,54.6
2016-08-20T13:25:14.547Z,54.8
2016-08-20T13:26:25.446Z,54.9
2016-08-20T13:27:37.720Z,54.8
2016-08-20T13:28:49.982Z,54.5
2016-08-20T13:30:01.577Z,54.5
2016-08-20T13:31:11.062Z,54.5
2016-08-20T13:32:22.644Z,54.8
2016-08-20T13:33:34.236Z,54.5
2016-08-20T13:34:46.514Z,54.6
2016-08-20T13:35:58.798Z,54.53
2016-08-20T13:37:10.370Z,54.63
2016-08-20T13:38:21.948Z,54.63
2016-08-20T13:39:34.230Z,54.5
2016-08-20T13:40:45.805Z,54.83
2016-08-20T13:41:56.679Z,54.8
2016-08-20T13:43:08.974Z,54.6
2016-08-20T13:44:21.537Z,55
2016-08-20T13:45:33.127Z,55.1
2016-08-20T13:46:44.758Z,55.49
2016-08-20T13:47:56.337Z,55.16
2016-08-20T13:49:08.606Z,55.07
2016-08-20T13:50:20.259Z,54.87
2016-08-20T13:51:31.864Z,54.87
2016-08-20T13:52:44.148Z,54.77
2016-08-20T13:53:56.437Z,54.77
2016-08-20T13:55:08.017Z,54.87
2016-08-20T13:56:18.907Z,54.97
2016-08-20T13:57:30.494Z,54.68
2016-08-20T13:58:42.768Z,54.87
2016-08-20T13:59:55.057Z,54.68
2016-08-20T14:01:07.340Z,54.58
2016-08-20T14:02:18.922Z,54.87
2016-08-20T14:03:29.789Z,54.97
2016-08-20T14:04:40.660Z,54.97
2016-08-20T14:05:50.826Z,54.68
2016-08-20T14:07:01.704Z,54.8
2016-08-20T14:08:13.981Z,55
2016-08-20T14:09:24.863Z,54.7
2016-08-20T14:10:37.166Z,54.6
2016-08-20T14:11:49.439Z,54.58
2016-08-20T14:13:01.725Z,54.97
2016-08-20T14:14:13.317Z,54.8
2016-08-20T14:15:24.901Z,54.77
2016-08-20T14:16:37.182Z,54.58
2016-08-20T14:17:49.450Z,54.77
2016-08-20T14:19:01.037Z,54.77
2016-08-20T14:20:13.329Z,54.7
2016-08-20T14:21:25.620Z,54.77
2016-08-20T14:22:37.187Z,54.8
2016-08-20T14:23:48.786Z,54.8
2016-08-20T14:25:00.437Z,54.6
2016-08-20T14:26:16.251Z,54.7
2016-08-20T14:27:28.838Z,54.5
2016-08-20T14:28:44.884Z,54.7
2016-08-20T14:30:00.713Z,54.7
2016-08-20T14:31:12.982Z,54.73
2016-08-20T14:32:23.153Z,54.73
2016-08-20T14:33:34.727Z,55.1
2016-08-20T14:34:50.611Z,55.39
2016-08-20T14:36:08.493Z,56.05
2016-08-20T14:37:21.973Z,55.82
2016-08-20T14:38:34.522Z,56.12
2016-08-20T14:39:48.430Z,55.9
2016-08-20T14:41:01.187Z,56.02
2016-08-20T14:42:12.737Z,55.73
2016-08-20T14:43:24.536Z,55.24
2016-08-20T14:44:40.138Z,54.97
2016-08-20T14:45:51.297Z,55.07
2016-08-20T14:47:07.309Z,54.58
2016-08-20T14:48:18.870Z,54.87
2016-08-20T14:49:31.158Z,54.97
2016-08-20T14:50:43.437Z,54.77
2016-08-20T14:51:55.000Z,54.97
2016-08-20T14:53:05.161Z,54.87
2016-08-20T14:54:16.740Z,54.77
2016-08-20T14:55:29.044Z,54.97
2016-08-20T14:56:39.903Z,55.14
2016-08-20T14:57:51.474Z,55.16
2016-08-20T14:59:03.053Z,55.26
2016-08-20T15:00:14.628Z,55.33
2016-08-20T15:01:25.499Z,55.14
2016-08-20T15:02:36.372Z,55.24
2016-08-20T15:03:47.954Z,55.63
2016-08-20T15:04:58.834Z,55.92
2016-08-20T15:06:09.713Z,55.92
2016-08-20T15:07:21.312Z,55.43
2016-08-20T15:08:33.627Z,55.53
2016-08-20T15:09:45.911Z,56.02
2016-08-20T15:10:58.175Z,56.02
2016-08-20T15:12:09.742Z,55.63
2016-08-20T15:13:22.027Z,56.09
2016-08-20T15:14:33.620Z,55.9
2016-08-20T15:15:45.201Z,55.96
2016-08-20T15:16:56.804Z,56.16
2016-08-20T15:18:09.068Z,56.65
2016-08-20T15:19:21.346Z,56.43
2016-08-20T15:20:32.925Z,56.72
2016-08-20T15:21:45.194Z,56.79
2016-08-20T15:22:57.487Z,56.79
2016-08-20T15:24:07.647Z,57.09
2016-08-20T15:25:19.231Z,56.6
2016-08-20T15:26:30.099Z,56.3
2016-08-20T15:27:40.970Z,56.1
2016-08-20T15:28:53.251Z,56.3
2016-08-20T15:30:04.813Z,56.1
2016-08-20T15:31:16.404Z,55.91